createdAt,value
2022-11-02T00:00:35.228Z,100.00
2022-11-02T00:03:05.603Z,100.00
2022-11-02T00:05:36.059Z,100.00
2022-11-02T00:08:12.264Z,100.00
2022-11-02T00:10:42.524Z,100.00
2022-11-02T00:13:09.722Z,100.00
2022-11-02T00:15:38.193Z,100.00
2022-11-02T00:18:15.962Z,100.00
2022-11-02T00:20:44.998Z,100.00
2022-11-02T00:23:14.423Z,100.00
2022-11-02T00:25:51.254Z,100.00
2022-11-02T00:28:20.598Z,100.00
2022-11-02T00:30:47.628Z,100.00
2022-11-02T00:33:15.914Z,100.00
2022-11-02T00:35:42.945Z,100.00
2022-11-02T00:38:10.818Z,100.00
2022-11-02T00:40:38.965Z,100.00
2022-11-02T00:43:07.938Z,100.00
2022-11-02T00:45:39.238Z,100.00
2022-11-02T00:48:06.846Z,100.00
2022-11-02T00:50:34.309Z,100.00
2022-11-02T00:53:02.178Z,100.00
2022-11-02T00:55:31.499Z,100.00
2022-11-02T00:58:00.833Z,100.00
2022-11-02T01:00:28.158Z,100.00
2022-11-02T01:02:59.762Z,100.00
2022-11-02T01:05:26.790Z,100.00
2022-11-02T01:08:07.059Z,100.00
2022-11-02T01:10:36.254Z,100.00
2022-11-02T01:13:05.403Z,100.00
2022-11-02T01:15:37.441Z,100.00
2022-11-02T01:18:19.704Z,100.00
2022-11-02T01:20:46.883Z,100.00
2022-11-02T01:23:13.808Z,100.00
2022-11-02T01:25:45.559Z,100.00
2022-11-02T01:28:12.477Z,100.00
2022-11-02T01:30:40.447Z,100.00
2022-11-02T01:33:10.324Z,100.00
2022-11-02T01:35:37.704Z,100.00
2022-11-02T01:38:08.705Z,100.00
2022-11-02T01:40:40.377Z,100.00
2022-11-02T01:43:47.062Z,100.00
2022-11-02T01:46:22.471Z,100.00
2022-11-02T01:49:05.688Z,100.00
2022-11-02T01:51:49.724Z,100.00
2022-11-02T01:54:22.988Z,100.00
2022-11-02T01:57:04.293Z,100.00
2022-11-02T01:59:56.951Z,100.00
2022-11-02T02:02:30.086Z,100.00
2022-11-02T02:05:18.018Z,100.00
2022-11-02T02:07:46.888Z,100.00
2022-11-02T02:10:15.014Z,100.00
2022-11-02T02:13:19.304Z,100.00
2022-11-02T02:16:15.628Z,100.00
2022-11-02T02:18:52.025Z,100.00
2022-11-02T02:21:40.420Z,100.00
2022-11-02T02:24:28.064Z,100.00
2022-11-02T02:27:43.144Z,100.00
2022-11-02T02:30:11.854Z,100.00
2022-11-02T02:33:12.250Z,100.00
2022-11-02T02:36:21.338Z,100.00
2022-11-02T02:39:23.679Z,100.00
2022-11-02T02:42:03.317Z,100.00
2022-11-02T02:44:41.119Z,100.00
2022-11-02T02:47:16.419Z,100.00
2022-11-02T02:49:58.419Z,100.00
2022-11-02T02:52:51.091Z,100.00
2022-11-02T02:55:26.514Z,100.00
2022-11-02T02:57:56.674Z,100.00
2022-11-02T03:00:24.681Z,100.00
2022-11-02T03:03:01.658Z,100.00
2022-11-02T03:05:33.028Z,100.00
2022-11-02T03:08:10.036Z,100.00
2022-11-02T03:11:27.227Z,100.00
2022-11-02T03:14:11.742Z,100.00
2022-11-02T03:16:49.738Z,100.00
2022-11-02T03:19:53.806Z,100.00
2022-11-02T03:22:56.679Z,100.00
2022-11-02T03:25:46.139Z,100.00
2022-11-02T03:28:24.918Z,100.00
2022-11-02T03:31:04.966Z,100.00
2022-11-02T03:33:38.204Z,100.00
2022-11-02T03:36:23.907Z,100.00
2022-11-02T03:38:59.425Z,100.00
2022-11-02T03:41:29.175Z,100.00
2022-11-02T03:44:04.231Z,100.00
2022-11-02T03:46:39.464Z,100.00
2022-11-02T03:49:11.547Z,100.00
2022-11-02T03:51:42.883Z,100.00
2022-11-02T03:54:36.695Z,100.00
2022-11-02T03:57:10.346Z,100.00
2022-11-02T03:59:38.183Z,100.00
2022-11-02T04:02:10.692Z,100.00
2022-11-02T04:04:54.024Z,100.00
2022-11-02T04:07:27.709Z,100.00
2022-11-02T04:09:56.610Z,100.00
2022-11-02T04:13:07.894Z,100.00
2022-11-02T04:15:35.904Z,100.00
2022-11-02T04:18:24.653Z,100.00
2022-11-02T04:20:53.323Z,100.00
2022-11-02T04:23:39.620Z,100.00
2022-11-02T04:26:07.794Z,100.00
2022-11-02T04:28:41.937Z,100.00
2022-11-02T04:31:13.369Z,100.00
2022-11-02T04:33:44.588Z,100.00
2022-11-02T04:36:19.408Z,100.00
2022-11-02T04:38:46.541Z,100.00
2022-11-02T04:41:33.088Z,100.00
2022-11-02T04:44:02.541Z,100.00
2022-11-02T04:46:38.529Z,100.00
2022-11-02T04:49:19.107Z,100.00
2022-11-02T04:51:49.756Z,100.00
2022-11-02T04:54:18.188Z,100.00
2022-11-02T04:56:45.438Z,100.00
2022-11-02T04:59:21.772Z,100.00
2022-11-02T05:01:57.225Z,100.00
2022-11-02T05:04:24.435Z,100.00
2022-11-02T05:06:51.505Z,100.00
2022-11-02T05:09:18.618Z,100.00
2022-11-02T05:11:45.799Z,100.00
2022-11-02T05:14:13.779Z,100.00
2022-11-02T05:16:40.701Z,100.00
2022-11-02T05:19:10.992Z,100.00
2022-11-02T05:21:40.276Z,100.00
2022-11-02T05:24:10.815Z,100.00
2022-11-02T05:26:38.884Z,100.00
2022-11-02T05:29:08.901Z,100.00
2022-11-02T05:31:36.844Z,100.00
2022-11-02T05:34:07.979Z,100.00
2022-11-02T05:36:37.681Z,100.00
2022-11-02T05:39:05.683Z,100.00
2022-11-02T05:41:36.869Z,100.00
2022-11-02T05:44:03.908Z,100.00
2022-11-02T05:46:33.849Z,100.00
2022-11-02T05:49:07.679Z,100.00
2022-11-02T05:51:34.607Z,100.00
2022-11-02T05:54:03.699Z,100.00
2022-11-02T05:56:30.649Z,100.00
2022-11-02T05:58:59.663Z,100.00
2022-11-02T06:01:35.829Z,100.00
2022-11-02T06:04:02.760Z,100.00
2022-11-02T06:06:29.790Z,100.00
2022-11-02T06:09:00.620Z,100.00
2022-11-02T06:11:32.285Z,100.00
2022-11-02T06:13:59.207Z,100.00
2022-11-02T06:16:38.469Z,100.00
2022-11-02T06:19:07.625Z,100.00
2022-11-02T06:21:36.528Z,100.00
2022-11-02T06:24:06.789Z,100.00
2022-11-02T06:26:33.758Z,100.00
2022-11-02T06:29:01.799Z,100.00
2022-11-02T06:31:28.684Z,100.00
2022-11-02T06:33:57.674Z,100.00
2022-11-02T06:36:28.887Z,100.00
2022-11-02T06:38:55.903Z,100.00
2022-11-02T06:41:22.824Z,100.00
2022-11-02T06:43:50.955Z,100.00
2022-11-02T06:46:43.101Z,100.00
2022-11-02T06:49:15.123Z,100.00
2022-11-02T06:51:51.905Z,100.00
2022-11-02T06:54:19.369Z,100.00
2022-11-02T06:56:46.398Z,100.00
2022-11-02T06:59:15.390Z,100.00
2022-11-02T07:01:42.661Z,100.00
2022-11-02T07:04:09.836Z,100.00
2022-11-02T07:06:36.814Z,100.00
2022-11-02T07:09:04.791Z,100.00
2022-11-02T07:11:33.469Z,100.00
2022-11-02T07:14:01.777Z,100.00
2022-11-02T07:16:47.749Z,100.00
2022-11-02T07:19:24.870Z,100.00
2022-11-02T07:22:22.869Z,100.00
2022-11-02T07:24:49.950Z,100.00
2022-11-02T07:27:17.547Z,100.00
2022-11-02T07:29:44.524Z,100.00
2022-11-02T07:32:12.662Z,100.00
2022-11-02T07:34:39.693Z,100.00
2022-11-02T07:37:29.227Z,100.00
2022-11-02T07:39:56.359Z,100.00
2022-11-02T07:42:32.278Z,100.00
2022-11-02T07:45:05.343Z,99.49
2022-11-02T07:47:48.059Z,98.44
2022-11-02T07:50:39.065Z,98.76
2022-11-02T07:53:40.251Z,98.35
2022-11-02T07:56:08.158Z,98.81
2022-11-02T07:58:41.324Z,98.23
2022-11-02T08:01:09.571Z,97.39
2022-11-02T08:03:36.779Z,96.10
2022-11-02T08:06:04.140Z,96.49
2022-11-02T08:08:42.316Z,95.97
2022-11-02T08:11:11.392Z,95.53
2022-11-02T08:13:38.859Z,94.76
2022-11-02T08:16:06.562Z,94.64
2022-11-02T08:18:34.678Z,92.71
2022-11-02T08:21:02.054Z,91.44
2022-11-02T08:23:30.528Z,91.16
2022-11-02T08:26:01.071Z,90.84
2022-11-02T08:28:36.816Z,88.85
2022-11-02T08:31:05.289Z,86.32
2022-11-02T08:33:32.389Z,83.78
2022-11-02T08:36:05.296Z,82.22
2022-11-02T08:38:32.660Z,80.82
2022-11-02T08:41:06.971Z,78.77
2022-11-02T08:43:34.020Z,72.91
2022-11-02T08:46:14.806Z,68.02
2022-11-02T08:48:42.737Z,64.45
2022-11-02T08:51:13.684Z,61.68
2022-11-02T08:53:48.579Z,59.98
2022-11-02T08:56:18.511Z,59.73
2022-11-02T08:58:56.784Z,58.17
2022-11-02T09:01:23.930Z,56.67
2022-11-02T09:03:51.166Z,56.69
2022-11-02T09:06:18.261Z,56.32
2022-11-02T09:08:47.395Z,55.50
2022-11-02T09:11:16.660Z,57.51
2022-11-02T09:13:45.627Z,56.45
2022-11-02T09:16:14.818Z,56.99
2022-11-02T09:18:41.941Z,58.03
2022-11-02T09:21:09.406Z,58.78
2022-11-02T09:23:43.659Z,60.08
2022-11-02T09:26:10.581Z,61.35
2022-11-02T09:28:38.692Z,59.81
2022-11-02T09:31:08.924Z,57.66
2022-11-02T09:33:39.664Z,57.02
2022-11-02T09:36:09.259Z,59.03
2022-11-02T09:38:43.566Z,59.67
2022-11-02T09:41:29.119Z,60.36
2022-11-02T09:44:34.434Z,60.67
2022-11-02T09:47:55.703Z,59.76
2022-11-02T09:49:51.350Z,59.70
2022-11-02T09:52:56.836Z,59.54
2022-11-02T09:55:37.329Z,59.72
2022-11-02T09:58:13.309Z,57.68
2022-11-02T10:01:00.721Z,57.82
2022-11-02T10:03:58.353Z,57.86
2022-11-02T10:06:33.239Z,57.13
2022-11-02T10:09:15.034Z,56.25
2022-11-02T10:11:54.427Z,56.12
2022-11-02T10:14:46.470Z,55.66
2022-11-02T10:17:22.873Z,56.23
2022-11-02T10:19:57.176Z,55.28
2022-11-02T10:22:32.925Z,52.60
2022-11-02T10:25:07.637Z,54.14
2022-11-02T10:27:40.528Z,53.57
2022-11-02T10:30:35.638Z,53.76
2022-11-02T10:33:13.484Z,53.13
2022-11-02T10:39:33.828Z,54.49
2022-11-02T10:42:22.148Z,51.41
2022-11-02T10:45:29.339Z,50.04
2022-11-02T10:48:04.291Z,49.62
2022-11-02T10:50:49.449Z,48.60
2022-11-02T10:53:40.740Z,48.16
2022-11-02T10:56:18.553Z,49.88
2022-11-02T10:59:20.805Z,50.40
2022-11-02T11:01:56.956Z,50.79
2022-11-02T11:04:32.259Z,52.14
2022-11-02T11:07:06.478Z,51.41
2022-11-02T11:09:48.841Z,51.52
2022-11-02T11:12:38.741Z,52.52
2022-11-02T11:21:02.579Z,51.61
2022-11-02T11:23:30.631Z,51.76
2022-11-02T11:26:26.277Z,50.82
2022-11-02T11:28:58.199Z,52.08
2022-11-02T11:31:26.355Z,51.12
2022-11-02T11:33:56.525Z,51.72
2022-11-02T11:36:36.807Z,52.02
2022-11-02T11:39:24.407Z,55.32
2022-11-02T11:41:51.443Z,55.83
2022-11-02T11:44:18.905Z,55.50
2022-11-02T11:46:52.739Z,53.09
2022-11-02T11:52:31.905Z,52.53
2022-11-02T11:55:26.155Z,54.19
2022-11-02T11:58:25.065Z,53.74
2022-11-02T12:01:16.535Z,53.54
2022-11-02T12:03:53.577Z,53.74
2022-11-02T12:06:56.675Z,55.69
2022-11-02T12:09:48.415Z,55.46
2022-11-02T12:12:46.439Z,55.60
2022-11-02T12:15:32.719Z,54.41
2022-11-02T12:18:38.430Z,55.23
2022-11-02T12:21:47.060Z,55.54
2022-11-02T12:24:40.650Z,54.76
2022-11-02T12:27:52.170Z,53.87
2022-11-02T12:31:03.883Z,52.73
2022-11-02T12:33:40.606Z,51.30
2022-11-02T12:36:20.594Z,52.51
2022-11-02T12:39:14.188Z,50.70
2022-11-02T12:42:04.996Z,50.08
2022-11-02T12:44:59.071Z,49.72
2022-11-02T12:47:44.464Z,49.09
2022-11-02T12:50:20.245Z,48.83
2022-11-02T12:53:48.242Z,48.22
2022-11-02T12:56:21.388Z,49.04
2022-11-02T12:58:56.244Z,48.29
2022-11-02T13:01:32.524Z,47.13
2022-11-02T13:04:17.367Z,46.11
2022-11-02T13:06:49.369Z,47.22
2022-11-02T13:09:31.838Z,46.35
2022-11-02T13:12:04.639Z,46.82
2022-11-02T13:14:43.095Z,45.54
2022-11-02T13:17:21.993Z,47.50
2022-11-02T13:20:03.943Z,46.57
2022-11-02T13:22:36.141Z,47.77
2022-11-02T13:25:17.744Z,45.56
2022-11-02T13:28:05.462Z,45.83
2022-11-02T13:30:34.107Z,45.65
2022-11-02T13:33:41.610Z,44.80
2022-11-02T13:36:13.013Z,43.81
2022-11-02T13:38:56.795Z,44.51
2022-11-02T13:41:55.950Z,45.20
2022-11-02T13:44:42.548Z,45.61
2022-11-02T13:47:22.300Z,45.26
2022-11-02T13:49:53.463Z,46.94
2022-11-02T13:52:42.422Z,47.31
2022-11-02T13:55:19.245Z,48.26
2022-11-02T13:58:05.889Z,50.61
2022-11-02T14:00:45.842Z,51.03
2022-11-02T14:03:22.775Z,50.71
2022-11-02T14:06:14.399Z,50.23
2022-11-02T14:08:56.968Z,51.24
2022-11-02T14:11:34.697Z,51.06
2022-11-02T14:14:12.520Z,51.83
2022-11-02T14:16:58.773Z,51.61
2022-11-02T14:19:49.734Z,51.86
2022-11-02T14:22:18.770Z,52.83
2022-11-02T14:24:48.515Z,53.10
2022-11-02T14:27:20.422Z,51.92
2022-11-02T14:29:52.376Z,53.45
2022-11-02T14:32:24.267Z,55.03
2022-11-02T14:35:16.623Z,55.39
2022-11-02T14:37:53.395Z,56.11
2022-11-02T14:40:43.313Z,57.21
2022-11-02T14:43:59.247Z,59.04
2022-11-02T14:46:57.129Z,60.19
2022-11-02T14:49:30.977Z,61.21
2022-11-02T14:52:04.774Z,62.98
2022-11-02T14:54:46.771Z,63.50
2022-11-02T14:57:33.499Z,65.02
2022-11-02T15:00:04.169Z,65.44
2022-11-02T15:02:43.156Z,66.45
2022-11-02T15:05:29.928Z,67.85
2022-11-02T15:08:02.487Z,68.74
2022-11-02T15:10:39.127Z,69.38
2022-11-02T15:13:30.547Z,69.54
2022-11-02T15:15:58.045Z,70.04
2022-11-02T15:18:34.695Z,70.81
2022-11-02T15:21:11.272Z,70.87
2022-11-02T15:24:11.030Z,70.64
2022-11-02T15:26:43.490Z,71.15
2022-11-02T15:29:33.677Z,71.19
2022-11-02T15:32:06.563Z,71.88
2022-11-02T15:34:43.999Z,71.91
2022-11-02T15:37:19.230Z,72.31
2022-11-02T15:39:56.776Z,72.61
2022-11-02T15:42:46.771Z,72.86
2022-11-02T15:45:42.243Z,72.54
2022-11-02T15:48:16.779Z,72.96
2022-11-02T15:51:07.581Z,72.40
2022-11-02T15:53:42.613Z,72.61
2022-11-02T15:56:28.206Z,73.55
2022-11-02T15:59:34.098Z,73.42
2022-11-02T16:02:35.862Z,73.96
2022-11-02T16:05:04.102Z,73.85
2022-11-02T16:07:50.295Z,73.54
2022-11-02T16:10:25.471Z,73.49
2022-11-02T16:13:12.530Z,72.79
2022-11-02T16:15:49.216Z,72.81
2022-11-02T16:18:28.529Z,72.08
2022-11-02T16:21:06.802Z,72.07
2022-11-02T16:23:37.501Z,72.03
2022-11-02T16:26:20.254Z,71.82
2022-11-02T16:28:56.189Z,71.96
2022-11-02T16:31:31.362Z,72.45
2022-11-02T16:34:22.855Z,73.06
2022-11-02T16:36:54.254Z,72.98
2022-11-02T16:39:32.199Z,73.50
2022-11-02T16:42:02.261Z,74.06
2022-11-02T16:44:33.726Z,74.41
2022-11-02T16:47:08.431Z,74.79
2022-11-02T16:49:51.421Z,74.55
2022-11-02T16:52:37.415Z,75.22
2022-11-02T16:55:26.160Z,75.71
2022-11-02T16:58:01.759Z,75.86
2022-11-02T17:00:29.111Z,76.37
2022-11-02T17:02:57.361Z,76.02
2022-11-02T17:05:26.899Z,76.44
2022-11-02T17:08:01.450Z,76.04
2022-11-02T17:10:29.800Z,76.48
2022-11-02T17:13:07.388Z,76.57
2022-11-02T17:15:38.166Z,76.35
2022-11-02T17:18:08.529Z,75.37
2022-11-02T17:20:38.211Z,75.35
2022-11-02T17:23:30.356Z,75.28
2022-11-02T17:26:22.435Z,75.38
2022-11-02T17:29:22.734Z,76.09
2022-11-02T17:32:01.926Z,76.29
2022-11-02T17:34:30.896Z,76.06
2022-11-02T17:37:06.965Z,76.47
2022-11-02T17:40:10.834Z,76.14
2022-11-02T17:42:57.253Z,76.55
2022-11-02T17:45:33.542Z,77.17
2022-11-02T17:48:08.411Z,78.52
2022-11-02T17:50:39.884Z,78.81
2022-11-02T17:53:13.535Z,79.39
2022-11-02T17:55:42.042Z,79.75
2022-11-02T17:58:21.534Z,79.21
2022-11-02T18:00:49.697Z,79.43
2022-11-02T18:03:21.185Z,79.20
2022-11-02T18:05:55.818Z,78.99
2022-11-02T18:08:26.044Z,79.66
2022-11-02T18:10:53.591Z,80.29
2022-11-02T18:13:27.900Z,81.36
2022-11-02T18:15:57.012Z,81.75
2022-11-02T18:18:29.746Z,82.62
2022-11-02T18:20:57.219Z,83.20
2022-11-02T18:23:24.936Z,83.36
2022-11-02T18:25:55.202Z,83.15
2022-11-02T18:28:27.007Z,83.47
2022-11-02T18:31:08.208Z,85.04
2022-11-02T18:33:36.335Z,85.20
2022-11-02T18:36:11.380Z,84.84
2022-11-02T18:38:44.718Z,85.02
2022-11-02T18:41:35.065Z,84.69
2022-11-02T18:44:15.260Z,85.61
2022-11-02T18:46:43.380Z,86.46
2022-11-02T18:49:12.614Z,86.60
2022-11-02T18:51:46.367Z,87.08
2022-11-02T18:54:16.102Z,87.87
2022-11-02T18:56:45.320Z,88.28
2022-11-02T18:59:14.899Z,88.76
2022-11-02T19:01:42.951Z,89.32
2022-11-02T19:04:17.014Z,89.17
2022-11-02T19:07:03.996Z,89.91
2022-11-02T19:12:30.859Z,90.48
2022-11-02T19:14:59.833Z,90.54
2022-11-02T19:17:31.149Z,90.82
2022-11-02T19:20:00.833Z,90.75
2022-11-02T19:22:31.392Z,90.97
2022-11-02T19:24:58.957Z,91.35
2022-11-02T19:27:29.779Z,91.42
2022-11-02T19:29:57.133Z,90.51
2022-11-02T19:32:31.095Z,89.14
2022-11-02T19:34:58.795Z,88.49
2022-11-02T19:37:26.058Z,88.84
2022-11-02T19:39:54.434Z,89.53
2022-11-02T19:42:24.234Z,89.98
2022-11-02T19:44:55.737Z,90.15
2022-11-02T19:47:23.096Z,89.63
2022-11-02T19:49:52.030Z,89.06
2022-11-02T19:52:19.412Z,89.55
2022-11-02T19:54:46.930Z,89.89
2022-11-02T19:57:16.454Z,90.18
2022-11-02T19:59:45.917Z,89.75
2022-11-02T20:02:19.013Z,90.08
2022-11-02T20:04:46.911Z,89.68
2022-11-02T20:07:21.372Z,89.71
2022-11-02T20:10:11.805Z,88.85
2022-11-02T20:12:40.050Z,87.89
2022-11-02T20:15:08.458Z,87.66
2022-11-02T20:17:51.883Z,87.89
2022-11-02T20:20:24.881Z,88.26
2022-11-02T20:22:54.156Z,88.17
2022-11-02T20:25:24.767Z,88.87
2022-11-02T20:27:54.215Z,89.78
2022-11-02T20:30:24.818Z,90.05
2022-11-02T20:32:54.605Z,89.89
2022-11-02T20:35:27.076Z,90.22
2022-11-02T20:37:56.202Z,90.37
2022-11-02T20:40:24.478Z,90.70
2022-11-02T20:42:53.141Z,91.01
2022-11-02T20:45:24.870Z,91.33
2022-11-02T20:47:54.457Z,91.87
2022-11-02T20:50:26.198Z,92.83
2022-11-02T20:52:55.638Z,94.57
2022-11-02T20:55:52.426Z,96.22
2022-11-02T20:58:21.124Z,97.85
2022-11-02T21:00:49.172Z,97.45
2022-11-02T21:03:17.814Z,97.71
2022-11-02T21:05:46.544Z,97.28
2022-11-02T21:08:17.902Z,96.79
2022-11-02T21:11:03.075Z,97.50
2022-11-02T21:13:49.416Z,97.77
2022-11-02T21:16:16.849Z,97.37
2022-11-02T21:18:50.030Z,97.81
2022-11-02T21:21:20.064Z,99.06
2022-11-02T21:23:52.111Z,99.33
2022-11-02T21:26:19.328Z,99.30
2022-11-02T21:28:46.474Z,99.79
2022-11-02T21:31:26.003Z,99.52
2022-11-02T21:33:54.188Z,100.00
2022-11-02T21:36:23.696Z,100.00
2022-11-02T21:38:51.943Z,100.00
2022-11-02T21:41:21.599Z,100.00
2022-11-02T21:43:52.166Z,100.00
2022-11-02T21:46:28.973Z,100.00
2022-11-02T21:49:01.981Z,100.00
2022-11-02T21:51:29.139Z,100.00
2022-11-02T21:53:57.007Z,100.00
2022-11-02T21:56:27.279Z,100.00
2022-11-02T21:59:05.435Z,100.00
2022-11-02T22:02:01.001Z,100.00
2022-11-02T22:04:34.384Z,100.00
2022-11-02T22:07:03.334Z,100.00
2022-11-02T22:09:31.430Z,100.00
2022-11-02T22:12:25.522Z,100.00
2022-11-02T22:14:53.622Z,100.00
2022-11-02T22:17:47.917Z,100.00
2022-11-02T22:20:18.917Z,100.00
2022-11-02T22:22:47.910Z,100.00
2022-11-02T22:25:14.858Z,100.00
2022-11-02T22:27:42.887Z,100.00
2022-11-02T22:30:11.670Z,100.00
2022-11-02T22:32:49.355Z,100.00
2022-11-02T22:35:31.428Z,100.00
2022-11-02T22:38:19.788Z,100.00
2022-11-02T22:41:09.477Z,100.00
2022-11-02T22:43:57.259Z,100.00
2022-11-02T22:46:26.699Z,100.00
2022-11-02T22:48:58.034Z,100.00
2022-11-02T22:51:44.374Z,100.00
2022-11-02T22:54:15.754Z,100.00
2022-11-02T22:56:44.226Z,100.00
2022-11-02T22:59:11.943Z,100.00
2022-11-02T23:01:39.643Z,100.00
2022-11-02T23:04:07.950Z,100.00
2022-11-02T23:06:35.382Z,100.00
2022-11-02T23:09:02.827Z,100.00
2022-11-02T23:11:34.034Z,100.00
2022-11-02T23:14:03.140Z,100.00
2022-11-02T23:16:54.115Z,100.00
2022-11-02T23:19:28.526Z,100.00
2022-11-02T23:22:25.527Z,100.00
2022-11-02T23:25:14.509Z,100.00
2022-11-02T23:28:22.339Z,100.00
2022-11-02T23:31:07.981Z,100.00
2022-11-02T23:33:47.027Z,100.00
2022-11-02T23:36:16.357Z,100.00
2022-11-02T23:39:05.134Z,100.00
2022-11-02T23:41:47.269Z,100.00
2022-11-02T23:44:16.268Z,100.00
2022-11-02T23:46:49.454Z,100.00
2022-11-02T23:49:24.739Z,100.00
2022-11-02T23:52:10.307Z,100.00
2022-11-02T23:54:56.134Z,100.00
2022-11-02T23:57:25.948Z,100.00
2022-11-02T23:59:52.984Z,100.00
